Dewar, OK

3:06 PM CDT on July 22, 2014 (GMT -0500)
RAWS CLEARVIEW OK US (MCVWO2) Elev 979 ft | 35.43 °N, 96.20 °W | Change Station
Active Advisory: Heat Advisory

Current weather conditions updated 49 minutes ago

Clear
Clear
91 °F
Feels Like 105 °F
N
2
Wind Variable Wind from East
Gusts 7.0 mph

Today is forecast to be nearly the same temperature as yesterday.

Today
High -- | Low -- °F
--% Chance of Precip.
Yesterday
High -- | Low -- °F
Precip. -- in
6:24 AM 8:35 PM
Waning Crescent, 15% visible
Pressure 30.06 in
Visibility 10.0 miles
Clouds Mostly Cloudy 3600 ft
Heat Index 105 °F
Dew Point 78 °F
Humidity 65%
Rainfall 0.00 in
Snow Depth Not available.
UV 6 out of 12
Pollen 3.60 out of 12
Air Quality Not available.
Flu Activity Local Activity
METAR KOKM 221955Z AUTO 17005KT 10SM BKN036 32/24 A3006 RMK AO2 T03200241

More Conditions Fewer Conditions

Pressure 30.06 in
Visibility 10.0 miles
Clouds Mostly Cloudy 3600 ft
Heat Index 105 °F
Dew Point 78 °F
Humidity 65%
Rainfall 0.00 in
Snow Depth Not available.
UV 6 out of 12
Pollen 3.60 out of 12
Air Quality Not available.
Flu Activity Local Activity
METAR KOKM 221955Z AUTO 17005KT 10SM BKN036 32/24 A3006 RMK AO2 T03200241

More Conditions Fewer Conditions

10-Day Weather Forecast

Almanac

Astronomy

Jul. 22, 2014 Rise Set
Actual Time 6:24 AM CDT 8:35 PM CDT
Civil Twilight 5:56 AM CDT 9:03 PM CDT
Nautical Twilight 5:21 AM CDT 9:38 PM CDT
Astronomical Twilight 4:42 AM CDT 10:16 PM CDT
Moon 2:57 AM CDT 5:14 PM CDT
Length of Visible Light 15h 07m
Length of Day
14h 10m
Tomorrow will be 1m 23s shorter.
Waning Crescent, 15% of the Moon is Illuminated
Today
Waning Crescent
Jul 26
New
Aug 3
First Quarter
Aug 10
Full
Aug 17
Last Quarter

Today's Extremes

State Highs State Lows

Community

WunderPhotos

Upload Photos

1,736,345 photos uploaded!

Nearby

Snow Depth

Station Depth Elevation
No new snow has been reported.

Earthquake Activity

City Distance Mag. Time & Date
Spencer, Oklahoma 80 miles 2.7 4:56 PM CDT
2014-07-18
Guthrie, Oklahoma 81 miles 2.9 8:59 PM CDT
2014-07-17
Perry, Oklahoma 89 miles 2.8 8:37 PM CDT
2014-07-17
Caldwell, Kansas 153 miles 3.6 5:40 AM CDT
2014-07-17
Minimum magnitude displayed is 2.5.

Coastal Water Temperatures

Place Temperature
No Stations Reporting

Nearby Weather Stations

Station Location Temp. Heat Index Dew Point Humidity Wind Precip. Elev Updated Type
RAWS CLEARVIEW OK, Okemah, OK 91 °F 105 °F 78 °F 65% East  at  2 mph 0.00 in / hr 979 ft 2:17 PM CDT MADIS
MesoWest EUFALA , Checotah, OK 88 °F 85 °F - - North  at  - 0.00 in / hr 666 ft 1:25 PM CDT MADIS
Double S Ranch, Beggs, OK 93.1 °F 106 °F 76 °F 58% NNW  at  2.0 mph 0.00 in / hr 778 ft 3:06 PM CDT Rapid Fire

Show More Stations Show Fewer Stations